Terminal Aerodrome Forecast
Issued by NWS Atlanta, GA

Home | Current Version | Previous Version | Text Only | Print | Product List | Glossary On
Versions: 1 2 3 4 5 6 7 8 9 10 11 12 13 14 15 16 17 18 19
000
FTUS42 KFFC 280541
TAFMCN
TAF
KMCN 280541Z 2806/2906 24002KT P6SM FEW060 BKN120
     FM281500 28006KT P6SM VCSH BKN040
     FM281800 27010KT P6SM VCSH BKN050 PROB30 2818/2821 5SM -TSRA BR
      BKN035CB
     FM282200 27008KT P6SM FEW060
     FM290300 28004KT P6SM SKC=

USA.gov is the U.S. government's official web portal to all federal, state and local government web resources and services.